Volgograd International Airport
URWW : now visible

Airfield :











YOU CAN JOIN US ON...

 
LOGIN :

Register | Disclaimer

   EN    FR    IT 

 









Legend :    VFR   Marginal VFR   IFR   Intensive IFR   Very Intensive IFR
Visi :
Ceiling :
>= 8 km
>= 3000ft
5 to 8 km
1000 to 3000 ft
1500m to 5 km
500 to 1000 ft
800 to 1500m
200 to 500 ft
< 800m
< 200 ft
Symbols :   Thunderstorms  Fog  Heavy snow  Heavy precipitations  Wind > 20 kt






- Airport Elevation : 482 ft
- IATA code : VOG


URWW - Volgograd International

CURRENT METAR :
  • 240000Z 21004MPS 3300 BR BKN008 OVC045 00/M00 Q1022 R24/810150 TEMPO 0300 -FZDZ FZFG OVC002 RMK OBST OBSC

EXPIRED METARs :
  • 232330Z 23003MPS 4000 BR BKN010 OVC045 00/M00 Q1022 R24/810150 TEMPO 0300 -FZDZ FZFG OVC002
  • 232300Z 23004MPS 4200 BR OVC008 00/M00 Q1022 R24/810150 TEMPO 0300 -FZDZ FZFG OVC002 RMK OBST OBSC
  • 232230Z 23004MPS 4700 BR OVC008 00/M00 Q1022 R24/810150 TEMPO 0300 -FZDZ FZFG OVC002 RMK OBST OBSC
  • 232200Z 24004MPS 4600 BR OVC009 00/M00 Q1022 R24/810150 TEMPO 0300 -FZDZ FZFG OVC002 RMK OBST OBSC
  • 232130Z 24005MPS 5000 BR OVC010 00/M00 Q1022 R24/810150 TEMPO 0300 -FZDZ FZFG OVC002

TAF TAF URWW
Valid from the 24 at 00:00 until the 24 at 09:00 UTC


232259Z 2400/2409 25005G10MPS 3100 BR OVC004
TEMPO 2400/2406 22006G11MPS 0300 FZFG OVC002
PROB40
TEMPO 2400/2406 1000 FZDZ
TEMPO 2406/2409 22006G12MPS 6000 NSW OVC011
URRV FIR / Europe



MET'MAP, your aeronautical weather chart ! - Copyright ORBIFLY December 2007 - Disclaimer

ORBIFLY MET'MAP TEAM :

Programming & Development : Alexandra Zaïnal
Concept & original design : Baudouin d'Aumeries
Assistance for programming : Marc-Olivier Méhu
Technical & hardware support : Manuel Goepfert

Contact : metmap@orbifly.com




SOURCES & CREDITS :

   NOAA       Earth
Advisory